sensor_id;sensor_type;location;lat;lon;timestamp;P1;durP1;ratioP1;P2;durP2;ratioP2
4597;SDS011;62772;48.646;8.906;2023-04-03T00:03:45;9.73;;;5.30;;
4597;SDS011;62772;48.646;8.906;2023-04-03T00:08:45;11.43;;;5.70;;
4597;SDS011;62772;48.646;8.906;2023-04-03T00:13:46;9.30;;;5.73;;
4597;SDS011;62772;48.646;8.906;2023-04-03T00:18:46;8.83;;;5.23;;
4597;SDS011;62772;48.646;8.906;2023-04-03T00:23:47;7.47;;;5.63;;
4597;SDS011;62772;48.646;8.906;2023-04-03T00:28:47;9.53;;;5.77;;
4597;SDS011;62772;48.646;8.906;2023-04-03T00:33:48;8.13;;;5.37;;
4597;SDS011;62772;48.646;8.906;2023-04-03T00:38:48;9.97;;;6.13;;
4597;SDS011;62772;48.646;8.906;2023-04-03T00:43:48;10.10;;;5.60;;
4597;SDS011;62772;48.646;8.906;2023-04-03T00:48:49;9.60;;;6.00;;
4597;SDS011;62772;48.646;8.906;2023-04-03T00:53:51;10.83;;;6.27;;
4597;SDS011;62772;48.646;8.906;2023-04-03T00:59:03;10.27;;;5.57;;
4597;SDS011;62772;48.646;8.906;2023-04-03T01:04:29;9.50;;;5.63;;
4597;SDS011;62772;48.646;8.906;2023-04-03T01:09:37;10.30;;;6.20;;
4597;SDS011;62772;48.646;8.906;2023-04-03T01:14:39;12.83;;;6.00;;
4597;SDS011;62772;48.646;8.906;2023-04-03T01:19:40;9.57;;;5.50;;
4597;SDS011;62772;48.646;8.906;2023-04-03T01:24:51;9.03;;;6.03;;
4597;SDS011;62772;48.646;8.906;2023-04-03T01:29:53;9.30;;;5.50;;
4597;SDS011;62772;48.646;8.906;2023-04-03T01:34:54;10.40;;;5.60;;
4597;SDS011;62772;48.646;8.906;2023-04-03T01:39:55;8.27;;;5.30;;
4597;SDS011;62772;48.646;8.906;2023-04-03T01:44:56;8.93;;;5.80;;
4597;SDS011;62772;48.646;8.906;2023-04-03T01:49:56;9.17;;;5.27;;
4597;SDS011;62772;48.646;8.906;2023-04-03T01:54:57;10.00;;;5.80;;
4597;SDS011;62772;48.646;8.906;2023-04-03T01:59:58;8.53;;;4.90;;
4597;SDS011;62772;48.646;8.906;2023-04-03T02:04:58;9.40;;;4.77;;
4597;SDS011;62772;48.646;8.906;2023-04-03T02:09:59;7.40;;;5.40;;
4597;SDS011;62772;48.646;8.906;2023-04-03T02:14:59;8.13;;;5.07;;
4597;SDS011;62772;48.646;8.906;2023-04-03T02:20:01;9.83;;;5.33;;
4597;SDS011;62772;48.646;8.906;2023-04-03T02:25:02;9.87;;;5.50;;
4597;SDS011;62772;48.646;8.906;2023-04-03T02:30:03;8.83;;;5.50;;
4597;SDS011;62772;48.646;8.906;2023-04-03T02:35:04;8.73;;;5.23;;
4597;SDS011;62772;48.646;8.906;2023-04-03T02:40:06;9.10;;;5.40;;
4597;SDS011;62772;48.646;8.906;2023-04-03T02:45:09;11.90;;;4.80;;
4597;SDS011;62772;48.646;8.906;2023-04-03T02:50:10;9.60;;;5.03;;
4597;SDS011;62772;48.646;8.906;2023-04-03T02:55:13;8.37;;;5.13;;
4597;SDS011;62772;48.646;8.906;2023-04-03T03:00:16;8.83;;;5.40;;
4597;SDS011;62772;48.646;8.906;2023-04-03T03:05:17;8.07;;;5.20;;
4597;SDS011;62772;48.646;8.906;2023-04-03T03:10:18;9.93;;;5.37;;
4597;SDS011;62772;48.646;8.906;2023-04-03T03:15:19;11.20;;;5.47;;
4597;SDS011;62772;48.646;8.906;2023-04-03T03:20:20;8.23;;;5.03;;
4597;SDS011;62772;48.646;8.906;2023-04-03T03:25:21;9.70;;;5.53;;
4597;SDS011;62772;48.646;8.906;2023-04-03T03:30:22;9.80;;;6.00;;
4597;SDS011;62772;48.646;8.906;2023-04-03T03:35:23;10.43;;;6.00;;
4597;SDS011;62772;48.646;8.906;2023-04-03T03:40:23;12.33;;;5.53;;
4597;SDS011;62772;48.646;8.906;2023-04-03T03:45:24;9.30;;;5.33;;
4597;SDS011;62772;48.646;8.906;2023-04-03T03:50:25;8.00;;;4.93;;
4597;SDS011;62772;48.646;8.906;2023-04-03T03:55:26;9.20;;;5.30;;
4597;SDS011;62772;48.646;8.906;2023-04-03T04:00:29;8.77;;;4.87;;
4597;SDS011;62772;48.646;8.906;2023-04-03T04:05:31;8.57;;;5.70;;
4597;SDS011;62772;48.646;8.906;2023-04-03T04:10:33;9.80;;;5.37;;
4597;SDS011;62772;48.646;8.906;2023-04-03T04:15:35;11.40;;;5.60;;
4597;SDS011;62772;48.646;8.906;2023-04-03T04:20:36;10.73;;;5.70;;
4597;SDS011;62772;48.646;8.906;2023-04-03T04:25:36;10.20;;;6.13;;
4597;SDS011;62772;48.646;8.906;2023-04-03T04:30:39;9.67;;;5.17;;
4597;SDS011;62772;48.646;8.906;2023-04-03T04:35:41;7.63;;;5.07;;
4597;SDS011;62772;48.646;8.906;2023-04-03T04:40:42;7.13;;;5.33;;
4597;SDS011;62772;48.646;8.906;2023-04-03T04:45:43;8.20;;;5.00;;
4597;SDS011;62772;48.646;8.906;2023-04-03T04:50:44;15.30;;;5.70;;
4597;SDS011;62772;48.646;8.906;2023-04-03T04:55:45;8.57;;;4.83;;
4597;SDS011;62772;48.646;8.906;2023-04-03T05:00:45;11.80;;;5.80;;
4597;SDS011;62772;48.646;8.906;2023-04-03T05:05:46;7.60;;;4.83;;
4597;SDS011;62772;48.646;8.906;2023-04-03T05:10:47;8.67;;;5.30;;
4597;SDS011;62772;48.646;8.906;2023-04-03T05:15:50;8.80;;;4.90;;
4597;SDS011;62772;48.646;8.906;2023-04-03T05:20:50;8.73;;;5.13;;
4597;SDS011;62772;48.646;8.906;2023-04-03T05:25:52;8.43;;;5.60;;
4597;SDS011;62772;48.646;8.906;2023-04-03T05:30:55;9.47;;;5.70;;
4597;SDS011;62772;48.646;8.906;2023-04-03T05:36:03;7.90;;;5.00;;
4597;SDS011;62772;48.646;8.906;2023-04-03T05:41:06;8.27;;;4.70;;
4597;SDS011;62772;48.646;8.906;2023-04-03T05:46:13;7.60;;;4.53;;
4597;SDS011;62772;48.646;8.906;2023-04-03T05:51:19;8.20;;;4.80;;
4597;SDS011;62772;48.646;8.906;2023-04-03T05:56:25;6.70;;;4.53;;
4597;SDS011;62772;48.646;8.906;2023-04-03T06:01:26;6.67;;;4.70;;
4597;SDS011;62772;48.646;8.906;2023-04-03T06:06:42;6.47;;;4.10;;
4597;SDS011;62772;48.646;8.906;2023-04-03T06:11:52;4.90;;;3.40;;
4597;SDS011;62772;48.646;8.906;2023-04-03T06:16:55;8.60;;;4.20;;
4597;SDS011;62772;48.646;8.906;2023-04-03T06:21:55;8.80;;;5.73;;
4597;SDS011;62772;48.646;8.906;2023-04-03T06:26:57;7.83;;;4.40;;
4597;SDS011;62772;48.646;8.906;2023-04-03T06:31:58;7.30;;;4.80;;
4597;SDS011;62772;48.646;8.906;2023-04-03T06:36:59;6.00;;;4.23;;
4597;SDS011;62772;48.646;8.906;2023-04-03T06:41:59;7.27;;;4.70;;
4597;SDS011;62772;48.646;8.906;2023-04-03T06:47:09;7.30;;;4.80;;
4597;SDS011;62772;48.646;8.906;2023-04-03T06:52:12;5.60;;;3.93;;
4597;SDS011;62772;48.646;8.906;2023-04-03T06:57:13;8.43;;;4.83;;
4597;SDS011;62772;48.646;8.906;2023-04-03T07:02:13;8.30;;;3.90;;
4597;SDS011;62772;48.646;8.906;2023-04-03T07:07:14;7.93;;;4.53;;
4597;SDS011;62772;48.646;8.906;2023-04-03T07:12:15;6.67;;;4.67;;
4597;SDS011;62772;48.646;8.906;2023-04-03T07:17:16;7.40;;;4.67;;
4597;SDS011;62772;48.646;8.906;2023-04-03T07:22:16;6.90;;;4.37;;
4597;SDS011;62772;48.646;8.906;2023-04-03T07:27:17;14.40;;;4.50;;
4597;SDS011;62772;48.646;8.906;2023-04-03T07:32:17;6.97;;;4.67;;
4597;SDS011;62772;48.646;8.906;2023-04-03T07:37:18;8.47;;;5.43;;
4597;SDS011;62772;48.646;8.906;2023-04-03T07:42:18;7.30;;;4.93;;
4597;SDS011;62772;48.646;8.906;2023-04-03T07:47:19;6.47;;;4.50;;
4597;SDS011;62772;48.646;8.906;2023-04-03T07:52:21;7.30;;;4.80;;
4597;SDS011;62772;48.646;8.906;2023-04-03T07:57:21;13.63;;;5.13;;
4597;SDS011;62772;48.646;8.906;2023-04-03T08:02:21;9.83;;;5.10;;
4597;SDS011;62772;48.646;8.906;2023-04-03T08:07:22;6.97;;;4.23;;
4597;SDS011;62772;48.646;8.906;2023-04-03T08:12:22;7.50;;;4.80;;
4597;SDS011;62772;48.646;8.906;2023-04-03T08:17:23;8.63;;;4.70;;
4597;SDS011;62772;48.646;8.906;2023-04-03T08:22:23;8.90;;;4.90;;
4597;SDS011;62772;48.646;8.906;2023-04-03T08:27:24;6.17;;;4.30;;
4597;SDS011;62772;48.646;8.906;2023-04-03T08:32:24;7.17;;;4.47;;
4597;SDS011;62772;48.646;8.906;2023-04-03T08:37:25;10.17;;;5.17;;
4597;SDS011;62772;48.646;8.906;2023-04-03T08:48:00;7.70;;;4.93;;
4597;SDS011;62772;48.646;8.906;2023-04-03T08:53:26;9.10;;;5.40;;
4597;SDS011;62772;48.646;8.906;2023-04-03T08:58:33;7.57;;;5.00;;
4597;SDS011;62772;48.646;8.906;2023-04-03T09:03:43;7.57;;;5.30;;
4597;SDS011;62772;48.646;8.906;2023-04-03T09:09:29;9.87;;;4.80;;
4597;SDS011;62772;48.646;8.906;2023-04-03T09:20:19;18.83;;;5.50;;
4597;SDS011;62772;48.646;8.906;2023-04-03T09:25:22;10.80;;;4.90;;
4597;SDS011;62772;48.646;8.906;2023-04-03T09:30:26;8.40;;;5.20;;
4597;SDS011;62772;48.646;8.906;2023-04-03T09:35:28;8.20;;;5.33;;
4597;SDS011;62772;48.646;8.906;2023-04-03T09:40:32;9.10;;;5.67;;
4597;SDS011;62772;48.646;8.906;2023-04-03T09:45:35;6.90;;;4.63;;
4597;SDS011;62772;48.646;8.906;2023-04-03T09:50:36;9.40;;;5.23;;
4597;SDS011;62772;48.646;8.906;2023-04-03T09:55:41;9.27;;;5.17;;
4597;SDS011;62772;48.646;8.906;2023-04-03T10:00:43;11.60;;;5.07;;
4597;SDS011;62772;48.646;8.906;2023-04-03T10:05:54;9.90;;;5.73;;
4597;SDS011;62772;48.646;8.906;2023-04-03T10:11:07;7.50;;;4.77;;
4597;SDS011;62772;48.646;8.906;2023-04-03T10:16:14;7.30;;;4.70;;
4597;SDS011;62772;48.646;8.906;2023-04-03T10:27:03;6.87;;;4.50;;
4597;SDS011;62772;48.646;8.906;2023-04-03T10:37:29;6.10;;;4.43;;
4597;SDS011;62772;48.646;8.906;2023-04-03T10:58:52;5.67;;;3.90;;
4597;SDS011;62772;48.646;8.906;2023-04-03T11:03:58;7.20;;;4.70;;
4597;SDS011;62772;48.646;8.906;2023-04-03T11:09:02;7.63;;;4.80;;
4597;SDS011;62772;48.646;8.906;2023-04-03T11:14:14;7.43;;;4.10;;
4597;SDS011;62772;48.646;8.906;2023-04-03T11:19:28;6.50;;;4.50;;
4597;SDS011;62772;48.646;8.906;2023-04-03T11:24:36;6.53;;;4.50;;
4597;SDS011;62772;48.646;8.906;2023-04-03T11:29:40;7.50;;;4.33;;
4597;SDS011;62772;48.646;8.906;2023-04-03T11:34:41;5.43;;;4.40;;
4597;SDS011;62772;48.646;8.906;2023-04-03T11:39:52;8.77;;;4.60;;
4597;SDS011;62772;48.646;8.906;2023-04-03T11:51:00;7.97;;;4.13;;
4597;SDS011;62772;48.646;8.906;2023-04-03T12:00:52;7.57;;;4.43;;
4597;SDS011;62772;48.646;8.906;2023-04-03T12:16:31;10.43;;;4.53;;
4597;SDS011;62772;48.646;8.906;2023-04-03T12:37:39;16.83;;;4.80;;
4597;SDS011;62772;48.646;8.906;2023-04-03T12:48:06;5.30;;;3.70;;
4597;SDS011;62772;48.646;8.906;2023-04-03T12:58:30;6.83;;;3.33;;
4597;SDS011;62772;48.646;8.906;2023-04-03T13:03:31;8.10;;;3.67;;
4597;SDS011;62772;48.646;8.906;2023-04-03T13:08:32;7.30;;;3.63;;
4597;SDS011;62772;48.646;8.906;2023-04-03T13:13:32;4.87;;;3.10;;
4597;SDS011;62772;48.646;8.906;2023-04-03T13:18:33;5.90;;;3.80;;
4597;SDS011;62772;48.646;8.906;2023-04-03T13:23:36;4.90;;;3.37;;
4597;SDS011;62772;48.646;8.906;2023-04-03T13:28:40;4.33;;;3.40;;
4597;SDS011;62772;48.646;8.906;2023-04-03T13:33:43;6.03;;;3.83;;
4597;SDS011;62772;48.646;8.906;2023-04-03T13:39:06;15.90;;;3.47;;
4597;SDS011;62772;48.646;8.906;2023-04-03T13:49:22;8.20;;;3.50;;
4597;SDS011;62772;48.646;8.906;2023-04-03T13:54:31;15.93;;;4.00;;
4597;SDS011;62772;48.646;8.906;2023-04-03T13:59:35;5.20;;;3.73;;
4597;SDS011;62772;48.646;8.906;2023-04-03T14:09:42;4.70;;;3.37;;
4597;SDS011;62772;48.646;8.906;2023-04-03T14:14:43;5.70;;;3.70;;
4597;SDS011;62772;48.646;8.906;2023-04-03T14:19:45;6.10;;;3.63;;
4597;SDS011;62772;48.646;8.906;2023-04-03T14:24:47;7.70;;;3.30;;
4597;SDS011;62772;48.646;8.906;2023-04-03T14:29:50;6.70;;;3.90;;
4597;SDS011;62772;48.646;8.906;2023-04-03T14:34:52;7.63;;;3.77;;
4597;SDS011;62772;48.646;8.906;2023-04-03T14:39:53;7.50;;;4.00;;
4597;SDS011;62772;48.646;8.906;2023-04-03T14:44:55;7.33;;;3.80;;
4597;SDS011;62772;48.646;8.906;2023-04-03T14:49:58;9.50;;;3.10;;
4597;SDS011;62772;48.646;8.906;2023-04-03T14:55:03;8.50;;;3.77;;
4597;SDS011;62772;48.646;8.906;2023-04-03T15:00:07;8.17;;;3.70;;
4597;SDS011;62772;48.646;8.906;2023-04-03T15:05:12;6.10;;;3.50;;
4597;SDS011;62772;48.646;8.906;2023-04-03T15:10:25;5.70;;;3.67;;
4597;SDS011;62772;48.646;8.906;2023-04-03T15:15:28;6.80;;;4.20;;
4597;SDS011;62772;48.646;8.906;2023-04-03T15:20:30;7.53;;;3.70;;
4597;SDS011;62772;48.646;8.906;2023-04-03T15:25:33;5.80;;;3.90;;
4597;SDS011;62772;48.646;8.906;2023-04-03T15:30:33;6.47;;;3.90;;
4597;SDS011;62772;48.646;8.906;2023-04-03T15:35:36;7.80;;;3.87;;
4597;SDS011;62772;48.646;8.906;2023-04-03T15:40:37;5.60;;;3.63;;
4597;SDS011;62772;48.646;8.906;2023-04-03T15:45:38;5.90;;;3.90;;
4597;SDS011;62772;48.646;8.906;2023-04-03T15:50:39;8.23;;;3.40;;
4597;SDS011;62772;48.646;8.906;2023-04-03T15:55:42;5.67;;;3.87;;
4597;SDS011;62772;48.646;8.906;2023-04-03T16:00:43;6.80;;;3.47;;
4597;SDS011;62772;48.646;8.906;2023-04-03T16:05:43;4.40;;;3.03;;
4597;SDS011;62772;48.646;8.906;2023-04-03T16:10:44;6.80;;;3.60;;
4597;SDS011;62772;48.646;8.906;2023-04-03T16:15:47;5.30;;;3.53;;
4597;SDS011;62772;48.646;8.906;2023-04-03T16:20:49;6.20;;;3.90;;
4597;SDS011;62772;48.646;8.906;2023-04-03T16:25:50;7.23;;;3.60;;
4597;SDS011;62772;48.646;8.906;2023-04-03T16:30:50;5.00;;;3.13;;
4597;SDS011;62772;48.646;8.906;2023-04-03T16:35:51;4.80;;;3.13;;
4597;SDS011;62772;48.646;8.906;2023-04-03T16:40:52;4.70;;;3.93;;
4597;SDS011;62772;48.646;8.906;2023-04-03T16:45:56;4.80;;;3.70;;
4597;SDS011;62772;48.646;8.906;2023-04-03T16:50:57;5.93;;;3.60;;
4597;SDS011;62772;48.646;8.906;2023-04-03T16:55:58;10.10;;;3.43;;
4597;SDS011;62772;48.646;8.906;2023-04-03T17:01:07;8.30;;;3.67;;
4597;SDS011;62772;48.646;8.906;2023-04-03T17:06:13;5.23;;;3.50;;
4597;SDS011;62772;48.646;8.906;2023-04-03T17:11:18;6.93;;;4.00;;
4597;SDS011;62772;48.646;8.906;2023-04-03T17:16:20;9.23;;;4.17;;
4597;SDS011;62772;48.646;8.906;2023-04-03T17:21:21;6.60;;;3.87;;
4597;SDS011;62772;48.646;8.906;2023-04-03T17:26:23;4.90;;;3.17;;
4597;SDS011;62772;48.646;8.906;2023-04-03T17:31:24;4.20;;;3.13;;
4597;SDS011;62772;48.646;8.906;2023-04-03T17:36:24;8.40;;;3.50;;
4597;SDS011;62772;48.646;8.906;2023-04-03T17:41:25;6.03;;;3.00;;
4597;SDS011;62772;48.646;8.906;2023-04-03T17:46:25;5.20;;;3.33;;
4597;SDS011;62772;48.646;8.906;2023-04-03T17:51:26;7.57;;;4.17;;
4597;SDS011;62772;48.646;8.906;2023-04-03T17:56:27;6.20;;;3.53;;
4597;SDS011;62772;48.646;8.906;2023-04-03T18:01:28;7.87;;;4.47;;
4597;SDS011;62772;48.646;8.906;2023-04-03T18:06:31;7.67;;;4.57;;
4597;SDS011;62772;48.646;8.906;2023-04-03T18:11:37;7.53;;;4.30;;
4597;SDS011;62772;48.646;8.906;2023-04-03T18:16:38;11.20;;;5.80;;
4597;SDS011;62772;48.646;8.906;2023-04-03T18:21:38;8.03;;;4.70;;
4597;SDS011;62772;48.646;8.906;2023-04-03T18:26:40;6.70;;;4.10;;
4597;SDS011;62772;48.646;8.906;2023-04-03T18:31:45;10.23;;;4.10;;
4597;SDS011;62772;48.646;8.906;2023-04-03T18:36:48;6.80;;;3.80;;
4597;SDS011;62772;48.646;8.906;2023-04-03T18:41:49;6.40;;;4.17;;
4597;SDS011;62772;48.646;8.906;2023-04-03T18:46:50;5.47;;;3.70;;
4597;SDS011;62772;48.646;8.906;2023-04-03T18:51:53;5.47;;;3.67;;
4597;SDS011;62772;48.646;8.906;2023-04-03T18:56:54;7.13;;;4.00;;
4597;SDS011;62772;48.646;8.906;2023-04-03T19:01:54;5.03;;;3.60;;
4597;SDS011;62772;48.646;8.906;2023-04-03T19:06:55;8.90;;;4.23;;
4597;SDS011;62772;48.646;8.906;2023-04-03T19:11:56;5.27;;;3.53;;
4597;SDS011;62772;48.646;8.906;2023-04-03T19:16:57;8.73;;;3.77;;
4597;SDS011;62772;48.646;8.906;2023-04-03T19:21:57;6.03;;;3.63;;
4597;SDS011;62772;48.646;8.906;2023-04-03T19:26:58;6.33;;;3.20;;
4597;SDS011;62772;48.646;8.906;2023-04-03T19:31:58;12.00;;;4.17;;
4597;SDS011;62772;48.646;8.906;2023-04-03T19:36:59;9.73;;;3.90;;
4597;SDS011;62772;48.646;8.906;2023-04-03T19:42:00;7.43;;;3.87;;
4597;SDS011;62772;48.646;8.906;2023-04-03T19:47:02;8.10;;;3.90;;
4597;SDS011;62772;48.646;8.906;2023-04-03T19:52:03;6.37;;;3.73;;
4597;SDS011;62772;48.646;8.906;2023-04-03T19:57:03;9.73;;;4.20;;
4597;SDS011;62772;48.646;8.906;2023-04-03T20:02:04;5.47;;;3.30;;
4597;SDS011;62772;48.646;8.906;2023-04-03T20:07:04;7.90;;;4.93;;
4597;SDS011;62772;48.646;8.906;2023-04-03T20:12:06;5.57;;;3.37;;
4597;SDS011;62772;48.646;8.906;2023-04-03T20:17:08;4.50;;;3.53;;
4597;SDS011;62772;48.646;8.906;2023-04-03T20:22:09;6.40;;;3.40;;
4597;SDS011;62772;48.646;8.906;2023-04-03T20:27:09;6.53;;;3.87;;
4597;SDS011;62772;48.646;8.906;2023-04-03T20:32:10;6.10;;;3.47;;
4597;SDS011;62772;48.646;8.906;2023-04-03T20:37:11;5.97;;;3.43;;
4597;SDS011;62772;48.646;8.906;2023-04-03T20:42:12;9.97;;;3.80;;
4597;SDS011;62772;48.646;8.906;2023-04-03T20:47:13;6.87;;;3.47;;
4597;SDS011;62772;48.646;8.906;2023-04-03T20:52:15;5.57;;;3.33;;
4597;SDS011;62772;48.646;8.906;2023-04-03T20:57:15;5.53;;;3.37;;
4597;SDS011;62772;48.646;8.906;2023-04-03T21:02:16;4.57;;;3.27;;
4597;SDS011;62772;48.646;8.906;2023-04-03T21:23:43;5.00;;;3.20;;
4597;SDS011;62772;48.646;8.906;2023-04-03T21:28:45;6.20;;;3.40;;
4597;SDS011;62772;48.646;8.906;2023-04-03T21:33:45;5.90;;;3.43;;
4597;SDS011;62772;48.646;8.906;2023-04-03T21:38:46;4.83;;;3.20;;
4597;SDS011;62772;48.646;8.906;2023-04-03T21:43:47;10.07;;;3.73;;
4597;SDS011;62772;48.646;8.906;2023-04-03T21:48:47;4.70;;;3.10;;
4597;SDS011;62772;48.646;8.906;2023-04-03T21:53:51;5.87;;;3.23;;
4597;SDS011;62772;48.646;8.906;2023-04-03T21:58:55;7.00;;;3.70;;
4597;SDS011;62772;48.646;8.906;2023-04-03T22:03:56;4.43;;;3.13;;
4597;SDS011;62772;48.646;8.906;2023-04-03T22:08:58;5.40;;;3.53;;
4597;SDS011;62772;48.646;8.906;2023-04-03T22:13:58;4.70;;;2.97;;
4597;SDS011;62772;48.646;8.906;2023-04-03T22:18:59;4.50;;;3.13;;
4597;SDS011;62772;48.646;8.906;2023-04-03T22:24:00;5.97;;;3.20;;
4597;SDS011;62772;48.646;8.906;2023-04-03T22:29:00;6.77;;;3.30;;
4597;SDS011;62772;48.646;8.906;2023-04-03T22:34:01;5.10;;;3.23;;
4597;SDS011;62772;48.646;8.906;2023-04-03T22:39:04;5.10;;;3.03;;
4597;SDS011;62772;48.646;8.906;2023-04-03T22:44:05;14.70;;;3.07;;
4597;SDS011;62772;48.646;8.906;2023-04-03T22:49:05;4.60;;;3.10;;
4597;SDS011;62772;48.646;8.906;2023-04-03T22:54:06;3.93;;;3.10;;
4597;SDS011;62772;48.646;8.906;2023-04-03T22:59:07;5.07;;;3.07;;
4597;SDS011;62772;48.646;8.906;2023-04-03T23:04:07;10.33;;;3.63;;
4597;SDS011;62772;48.646;8.906;2023-04-03T23:09:08;4.07;;;2.80;;
4597;SDS011;62772;48.646;8.906;2023-04-03T23:14:08;5.80;;;3.40;;
4597;SDS011;62772;48.646;8.906;2023-04-03T23:19:09;5.73;;;3.40;;
4597;SDS011;62772;48.646;8.906;2023-04-03T23:24:10;5.43;;;3.37;;
4597;SDS011;62772;48.646;8.906;2023-04-03T23:29:10;4.80;;;3.43;;
4597;SDS011;62772;48.646;8.906;2023-04-03T23:34:11;5.10;;;3.13;;
4597;SDS011;62772;48.646;8.906;2023-04-03T23:39:11;5.97;;;3.20;;
4597;SDS011;62772;48.646;8.906;2023-04-03T23:44:12;6.80;;;3.37;;
4597;SDS011;62772;48.646;8.906;2023-04-03T23:49:12;4.07;;;3.27;;
4597;SDS011;62772;48.646;8.906;2023-04-03T23:54:13;5.37;;;3.67;;
4597;SDS011;62772;48.646;8.906;2023-04-03T23:59:13;8.30;;;3.77;;
